Semora, North Carolina
Current Conditions -  °F | °C
As of 1:53 PM on Friday 28 Nov 2014 (Local Time) from KDAN Reporting Station
Clear Clear  
Wind Chill: 39°   Ceiling: Unl
Heat Index: 43°   Visibility: 10mi
Dew Point: 20°   Wind: 6mph
Humidity: 40%   Direction: NA
Pressure: 30.28"   Gusts: NA
Location:  36.5°N, 79.15°W
Report Text: KDAN 281853Z AUTO VRB05KT 10SM CLR 06/M07 A3028 RMK AO2 SLP253 T00611067
Loading
Personal Weather Stations






























Interactive Weather Map New forecast layout! Learn more

10-Day Weather Forecast

Advertisements
Track Severe Weather on mobile